Big Spring, Illinois
Current Conditions -  °F | °C
As of 3:53 AM on Friday 28 Nov 2014 (Local Time) from KMTO Reporting Station
Few Clouds Few Clouds  
Wind Chill: 12°   Ceiling: Unl
Heat Index: 19°   Visibility: 10mi
Dew Point: 10°   Wind: 5mph
Humidity: 68%   Direction: 170°S
Pressure: 30.37"   Gusts: NA
Location:  39.3144°N, 88.4504°W
Report Text: KMTO 280953Z AUTO 17004KT 10SM FEW065 M07/M12 A3037 RMK AO2 SLP296 T10721122
Loading
Personal Weather Stations






























Interactive Weather Map New forecast layout! Learn more

10-Day Weather Forecast

Advertisements
Track Severe Weather on mobile